Flight Track Log - Related Links

Times and Time Zones

All times are in EST time to prevent confusion due to time zone crossing. See the ASQ5941 flight status page for this flight to view local times or setup timezone preferences in your user account.

Time Position Orientation Groundspeed Altitude Reporting Facility
EST Latitude Longitude Course Direction KTS MPH feet Rate Location/Type
Sun 05:16:00 PM 41.3766 -76.0862 294° West  Level Estimated
Sun 05:16:08 PM 41.4656 -75.7375 320° Northwest 195 224 7,700  Level New York Center
Sun 05:17:00 PM 41.3890 -76.2072 304° West  Level Estimated
Sun 05:17:08 PM 41.5172 -75.7911 322° Northwest 215 247 9,800  Level New York Center
Sun 05:18:00 PM 41.4013 -76.3283 307° West  Level Estimated
Sun 05:18:08 PM 41.5769 -75.8567 321° Northwest 258 297 10,900  Level New York Center
Sun 05:19:00 PM 41.4135 -76.4494 270° West  Level Estimated
Sun 05:19:08 PM 41.6119 -75.9619 294° West 292 336 12,200  Level New York Center
Sun 05:20:08 PM 41.6411 -76.0614 291° West 319 367 13,700 1,500 Climbing New York Center
Sun 05:21:08 PM 41.6714 -76.1750 290° West 329 379 15,200 1,650 Climbing New York Center
Sun 05:22:08 PM 41.7072 -76.2972 291° West 329 379 17,000 1,400 Climbing New York Center
Sun 05:23:08 PM 41.7375 -76.4083 290° West 329 379 18,000 1,150 Climbing New York Center
Sun 05:24:08 PM 41.7658 -76.5108 290° West 329 379 19,300 1,231 Climbing New York Center
Sun 05:26:23 PM 41.8414 -76.7772 291° West 335 386 22,000 1,188 Climbing Cleveland Center
Sun 05:27:25 PM 41.8731 -76.8953 290° West 336 387 23,200 1,161 Climbing Cleveland Center
Sun 05:28:27 PM 41.9050 -77.0114 290° West 335 386 24,400 1,152 Climbing Cleveland Center
Sun 05:29:30 PM 41.9372 -77.1283 290° West 333 383 25,600 1,248 Climbing Cleveland Center
Sun 05:30:32 PM 41.9669 -77.2431 289° West 330 380 27,000 1,548 Climbing Cleveland Center
Sun 05:31:34 PM 42.0025 -77.3739 290° West 314 361 28,800 1,500 Climbing Cleveland Center
Sun 05:32:36 PM 42.0300 -77.4781 290° West 300 345 30,100 1,210 Climbing Cleveland Center
Sun 05:33:38 PM 42.0589 -77.5817 291° West 296 341 31,300 1,065 Climbing Cleveland Center
Sun 05:34:40 PM 42.0883 -77.6897 290° West 303 349 32,300 968 Climbing Cleveland Center
Sun 05:35:42 PM 42.1178 -77.7994 290° West 309 356 33,300 968 Climbing Cleveland Center
Sun 05:36:44 PM 42.1478 -77.9125 290° West 318 366 34,300 1,113 Climbing Cleveland Center
Sun 05:37:46 PM 42.1833 -78.0453 290° West 313 360 35,600 823 Climbing Cleveland Center
Sun 05:38:48 PM 42.2131 -78.1572 290° West 315 362 36,000 194 Climbing Cleveland Center
Sun 05:39:50 PM 42.2444 -78.2789 289° West 341 392 36,000  Level Cleveland Center
Sun 05:40:52 PM 42.2764 -78.4067 289° West 354 407 36,000  Level Cleveland Center
Sun 05:41:55 PM 42.3083 -78.5417 288° West 369 425 36,000  Level Cleveland Center
Sun 05:42:57 PM 42.3422 -78.6769 289° West 379 436 36,000  Level Cleveland Center
Sun 05:43:59 PM 42.3739 -78.8094 288° West 374 430 36,000  Level Cleveland Center
Sun 05:45:01 PM 42.4039 -78.9689 284° West 377 434 36,000  Level Cleveland Center
Sun 05:46:03 PM 42.4128 -79.1067 275° West 377 434 36,000  Level Cleveland Center
Sun 05:47:05 PM 42.4219 -79.2433 275° West 372 428 36,000  Level Cleveland Center
Sun 05:48:07 PM 42.3906 -79.3800 253° West 394 453 36,000  Level Cleveland Center
Sun 05:49:09 PM 42.3356 -79.5339 244° Southwest 386 444 36,000  Level Cleveland Center
Sun 05:50:11 PM 42.2892 -79.6644 244° Southwest 389 448 36,000  Level Cleveland Center
Sun 05:51:13 PM 42.2422 -79.7947 244° Southwest 387 445 36,000  Level Cleveland Center
Sun 05:52:15 PM 42.1947 -79.9256 244° Southwest 392 451 36,000  Level Cleveland Center
Sun 05:53:17 PM 42.1397 -80.0819 245° Southwest 398 458 36,000  Level Cleveland Center
Sun 05:54:19 PM 42.0917 -80.2133 244° Southwest 389 448 36,000  Level Cleveland Center
Sun 05:55:22 PM 42.0439 -80.3447 244° Southwest 390 449 36,000  Level Cleveland Center
Sun 05:56:24 PM 41.9944 -80.4761 243° Southwest 391 450 36,000  Level Cleveland Center
Sun 05:57:26 PM 41.9469 -80.6081 244° Southwest 391 450 36,000  Level Cleveland Center
Sun 05:58:28 PM 41.8969 -80.7378 243° Southwest 389 448 36,000  Level Cleveland Center
Sun 05:59:30 PM 41.8478 -80.8694 243° Southwest 390 449 36,000  Level Cleveland Center
Sun 06:00:32 PM 41.7914 -81.0219 244° Southwest 389 448 36,000  Level Cleveland Center
Sun 06:01:34 PM 41.7422 -81.1522 243° Southwest 391 450 36,000  Level Cleveland Center
Sun 06:02:36 PM 41.7044 -81.2864 249° West 384 442 36,000  Level Cleveland Center
Sun 06:03:38 PM 41.6861 -81.4239 260° West 376 433 36,000  Level Cleveland Center
Sun 06:04:40 PM 41.6694 -81.5600 261° West 371 427 36,000  Level Cleveland Center
Sun 06:05:42 PM 41.6514 -81.6961 260° West 372 428 36,000  Level Cleveland Center
Sun 06:06:44 PM 41.6319 -81.8536 261° West 368 423 36,000  Level Cleveland Center
Sun 06:07:46 PM 41.6139 -81.9889 260° West 369 425 36,000  Level Cleveland Center
Sun 06:08:48 PM 41.5967 -82.1242 260° West 370 426 36,000  Level Cleveland Center
Sun 06:09:51 PM 41.5783 -82.2611 260° West 373 429 36,000  Level Cleveland Center
Sun 06:10:53 PM 41.5594 -82.3994 260° West 376 433 36,000  Level Cleveland Center
Sun 06:11:55 PM 41.5406 -82.5386 260° West 378 435 36,000  Level Cleveland Center
Sun 06:12:57 PM 41.5183 -82.7019 260° West 379 436 36,000  Level Cleveland Center
Sun 06:13:59 PM 41.4997 -82.8406 260° West 378 435 36,000  Level Cleveland Center
Sun 06:15:01 PM 41.4908 -82.9803 265° West 377 434 36,000  Level Cleveland Center
Sun 06:16:03 PM 41.4825 -83.1172 265° West 370 426 36,000  Level Cleveland Center
Sun 06:17:05 PM 41.4736 -83.2483 265° West 368 423 36,000  Level Cleveland Center
Sun 06:18:07 PM 41.4636 -83.3833 264° West 367 422 36,000  Level Cleveland Center
Sun 06:19:09 PM 41.4525 -83.5483 265° West 370 426 36,000  Level Cleveland Center
Sun 06:20:11 PM 41.4436 -83.6839 265° West 369 425 36,000 -242 Level Cleveland Center
Sun 06:21:13 PM 41.4325 -83.8194 264° West 368 423 35,500 -774 Descending Cleveland Center
Sun 06:22:15 PM 41.4233 -83.9572 265° West 372 428 34,400 -720 Descending Cleveland Center
Sun 06:23:18 PM 41.4142 -84.0947 265° West 373 429 34,000 -192 Descending Cleveland Center
Sun 06:24:20 PM 41.4019 -84.2528 264° West 377 434 34,000  Level Cleveland Center
Sun 06:25:22 PM 41.3919 -84.3922 265° West 377 434 34,000  Level Cleveland Center
Sun 06:26:24 PM 41.3811 -84.5306 264° West 376 433 34,000  Level Cleveland Center
Sun 06:27:26 PM 41.3694 -84.6694 264° West 377 434 34,000  Level Cleveland Center
Sun 06:28:28 PM 41.3586 -84.8078 264° West 376 433 34,000  Level Cleveland Center
Sun 06:29:31 PM 41.3478 -84.9444 264° West 373 429 34,000  Level Cleveland Center
Sun 06:30:32 PM 41.3342 -85.1081 264° West 369 425 34,000 -195 Level Cleveland Center
Sun 06:31:34 PM 41.3231 -85.2447 264° West 370 426 33,600 -1,210 Descending Cleveland Center
Sun 06:32:36 PM 41.3103 -85.3864 263° West 378 435 31,500 -2,032 Descending Cleveland Center
Sun 06:33:38 PM 41.2972 -85.5353 263° West 395 455 29,400 -2,177 Descending Cleveland Center
Sun 06:34:40 PM 41.2842 -85.6883 264° West 412 474 27,000 -2,081 Descending Cleveland Center
Sun 06:35:42 PM 41.2714 -85.8422 264° West 416 479 25,100 -968 Descending Cleveland Center
Sun 06:36:44 PM 41.2822 -85.9942 275° West 416 479 25,000 -1,056 Descending Cleveland Center
Sun 06:37:47 PM 41.3325 -86.1592 292° West 404 465 22,900 -2,592 Descending Cleveland Center
Sun 06:38:49 PM 41.3781 -86.2950 294° West 401 461 19,600 -2,613 Descending Cleveland Center
Sun 06:39:51 PM 41.4314 -86.4100 302° West 376 433 17,500 -2,000 Descending Cleveland Center
Sun 06:41:04 PM 41.5083 -86.5392 309° West 370 426 15,100 -2,133 Descending Chicago Center
Sun 06:42:06 PM 41.5681 -86.6419 308° West 355 409 12,700 -1,500 Descending Chicago Center
Sun 06:43:08 PM 41.6294 -86.7458 308° West 342 394 12,000 -290 Descending Chicago Center
Sun 06:44:10 PM 41.7078 -86.8006 332° Northwest 332 382 12,100 48 Climbing Chicago Center
Sun 06:45:13 PM 41.8017 -86.8150 353° North 338 389 12,100  Level Chicago Center
Sun 06:46:14 PM 41.9036 -86.8725 337° Northwest 332 382 12,100 -293 Level Chicago Center
Sun 06:47:16 PM 41.9536 -86.9711 304° West 330 380 11,500 -823 Descending Chicago Center
Sun 06:48:18 PM 41.9806 -87.0886 287° West 343 395 10,400 -774 Descending Chicago Center
Sun 06:49:20 PM 41.9833 -87.2058 272° West 328 377 9,900 -1,210 Descending Chicago Center
Sun 06:50:22 PM 41.9833 -87.3039 270° West 284 327 7,900 -1,403 Descending Chicago Center
Sun 06:51:24 PM 41.9833 -87.4208 270° West 266 306 7,000 -726 Descending Chicago Center
Sun 06:52:26 PM 41.9828 -87.5181 270° West 263 303 6,400 -1,016 Descending Chicago Center
Sun 06:53:28 PM 41.9844 -87.6119 271° West 258 297 4,900 -1,500 Descending Chicago Center
Sun 06:54:10 PM 41.9833 -87.6833 269° West 226 260 3,800 -1,250 Descending Chicago TRACON
Sun 06:55:04 PM 41.9833 -87.7500 270° West 195 224 2,900 -1,000 Descending Chicago TRACON
Sun 06:56:10 PM 41.9833 -87.8167 270° West 162 186 1,800 -900 Descending Chicago TRACON
Sun 06:57:04 PM 41.9833 -87.8667 270° West 144 166 1,100 -778 Descending Chicago TRACON

Login

Don't have an account? Register now (free) for customized features, flight alerts, and more!